Marcel — ONDP — position and weather

sailwx.info

Track history (hours):
 
Tides and Currents Weather Stations Pressure Air Temp Water Temp Dewpoint Dewpoint Depression Visibility Wind Speed Wind Dir Waves Ship Positions

Marcel

Last reported at 2016-Jun-29 06:34 UTC. Time now 2016-Jun-29 21:58 UTC.
Position N 37°26' W 009°51'.

Length 88 m; draft 5.4 m.

Type: Cargo ship. MMSI: 205439000.

Date/timePositionNaut miles runAvg speedWind from/ knotsBaromVisibWave heightAir tempDewpointWater temp
2016-Jun-29 06:34N 37°26' W 009°51'38 9.2
2016-Jun-29 02:25N 38°04' W 009°58'  
2016-Jun-25 10:32N 49°50' W 003°14'9 7.2
2016-Jun-25 09:21N 49°54' W 003°03'6 7.6
2016-Jun-25 08:33N 49°58' W 002°55'100 8.9
2016-Jun-24 21:18N 50°26' W 000°25'6 8.1
2016-Jun-24 20:33N 50°28' W 000°17'6 5.6
2016-Jun-24 19:33N 50°30' W 000°08'10 9.3
2016-Jun-24 18:31N 50°32' E 000°07'45 9.0
2016-Jun-24 13:32N 50°55' E 001°08'8 7.7
2016-Jun-24 12:33N 50°60' E 001°17'10 9.7
2016-Jun-24 11:33N 51°05' E 001°29'1212.1
2016-Jun-24 10:33N 51°13' E 001°44'1212.3
2016-Jun-24 09:33N 51°23' E 001°57'9 8.8
2016-Jun-24 08:33N 51°22' E 002°11'10 9.8
2016-Jun-24 07:32N 51°22' E 002°27'26 8.7
2016-Jun-24 04:33N 51°24' E 003°09'8 8.3
2016-Jun-24 03:34N 51°25' E 003°22'7 7.4
2016-Jun-24 02:34N 51°26' E 003°33'1 1.3
2016-Jun-24 01:33N 51°25' E 003°35'0 0.5
2016-Jun-24 00:31N 51°25' E 003°36'0 0.0
2016-Jun-23 23:32N 51°25' E 003°36'0 0.0
2016-Jun-23 22:33N 51°25' E 003°36'0 0.1
2016-Jun-23 21:29N 51°25' E 003°36'0 0.0
2016-Jun-23 20:21N 51°25' E 003°36'0 0.0
2016-Jun-23 19:26N 51°25' E 003°36'0 0.0
2016-Jun-23 18:27N 51°25' E 003°36'0 0.0
2016-Jun-23 17:32N 51°25' E 003°36'0 0.1
2016-Jun-23 16:31N 51°25' E 003°36'0 0.1
2016-Jun-23 15:29N 51°25' E 003°36'0 0.0
2016-Jun-23 14:32N 51°25' E 003°36'0 0.0
2016-Jun-23 13:30N 51°25' E 003°36'0 0.0
2016-Jun-23 12:30N 51°25' E 003°36'0 0.0
2016-Jun-23 11:29N 51°25' E 003°36'0 0.1
2016-Jun-23 10:32N 51°25' E 003°36'0 0.1
2016-Jun-23 09:33N 51°25' E 003°36'0 0.0
2016-Jun-23 08:33N 51°25' E 003°36'4 4.3
2016-Jun-23 07:33N 51°25' E 003°29'13 6.7
2016-Jun-23 05:33N 51°21' E 003°49'9 8.9
2016-Jun-23 04:33N 51°25' E 004°02'6 6.1
2016-Jun-23 03:34N 51°24' E 004°11'7 6.7
2016-Jun-23 02:33N 51°18' E 004°17'3 2.5
2016-Jun-23 01:34N 51°17' E 004°20'3 2.6
2016-Jun-23 00:33N 51°15' E 004°23'0 0.0
2016-Jun-22 23:27N 51°15' E 004°23'0 0.0
2016-Jun-22 22:32N 51°15' E 004°23'0 0.0
2016-Jun-22 21:29N 51°15' E 004°23'0 0.0
2016-Jun-22 20:33N 51°15' E 004°23'0 0.0
2016-Jun-22 19:29N 51°15' E 004°23'0 0.0
2016-Jun-22 18:31N 51°15' E 004°23'0 0.0
2016-Jun-22 17:34N 51°15' E 004°23'0 0.0
2016-Jun-22 16:31N 51°15' E 004°23'0 0.0
2016-Jun-22 15:27N 51°15' E 004°23'0 0.0
2016-Jun-22 14:33N 51°15' E 004°23'0 0.0
2016-Jun-22 13:26N 51°15' E 004°23'0 0.0
2016-Jun-22 12:30N 51°15' E 004°23'0 0.0
2016-Jun-22 11:34N 51°15' E 004°23'0 0.0
2016-Jun-22 10:31N 51°15' E 004°23'0 0.0
2016-Jun-22 09:26N 51°15' E 004°23'0 0.0
2016-Jun-22 08:31N 51°15' E 004°23'0 0.0
2016-Jun-22 07:27N 51°15' E 004°23'0 0.0
2016-Jun-22 06:26N 51°15' E 004°23'0 0.0
2016-Jun-22 05:31N 51°15' E 004°23'0 0.0
2016-Jun-22 04:30N 51°15' E 004°23'0 0.0
2016-Jun-22 03:31N 51°15' E 004°23'0 0.0
2016-Jun-22 02:27N 51°15' E 004°23'0 0.0
2016-Jun-22 01:31N 51°15' E 004°23'0 0.0
2016-Jun-22 00:27N 51°15' E 004°23'0 0.0
2016-Jun-21 23:32N 51°15' E 004°23'0 0.0
2016-Jun-21 22:28N 51°15' E 004°23'0 0.0
2016-Jun-21 21:31N 51°15' E 004°23'0 0.0
2016-Jun-21 20:33N 51°15' E 004°23'0 0.0
2016-Jun-21 19:30N 51°15' E 004°23'0 0.0
2016-Jun-21 18:27N 51°15' E 004°23'0 0.0
2016-Jun-21 17:32N 51°15' E 004°23'0 0.0
2016-Jun-21 16:28N 51°15' E 004°23'0 0.0
2016-Jun-21 15:29N 51°15' E 004°23'0 0.0
2016-Jun-21 14:33N 51°15' E 004°23'0 0.0
2016-Jun-21 13:29N 51°15' E 004°23'0 0.0
2016-Jun-21 12:32N 51°15' E 004°23'0 0.0
2016-Jun-21 11:21N 51°15' E 004°23'0 0.0
2016-Jun-21 10:27N 51°15' E 004°23'0 0.0
2016-Jun-21 09:32N 51°15' E 004°23'0 0.0
2016-Jun-21 08:30N 51°15' E 004°23'0 0.0
2016-Jun-21 07:29N 51°15' E 004°23'0 0.0
2016-Jun-21 06:26N 51°15' E 004°23'0 0.0
2016-Jun-21 04:32N 51°15' E 004°23'0 0.0
2016-Jun-21 03:30N 51°15' E 004°23'0 0.0
2016-Jun-21 02:33N 51°15' E 004°23'0 0.0
2016-Jun-21 01:31N 51°15' E 004°23'0 0.0
2016-Jun-21 00:27N 51°15' E 004°23'0 0.0
2016-Jun-20 23:31N 51°15' E 004°23'0 0.0
2016-Jun-20 22:27N 51°15' E 004°23'0 0.0
2016-Jun-20 21:31N 51°15' E 004°23'0 0.0
2016-Jun-20 20:27N 51°15' E 004°23'0 0.0
2016-Jun-20 19:29N 51°15' E 004°23'0 0.0
2016-Jun-20 18:27N 51°15' E 004°23'0 0.0
2016-Jun-20 17:31N 51°15' E 004°23'0 0.0
2016-Jun-20 16:30N 51°15' E 004°23'0 0.0
2016-Jun-20 15:31N 51°15' E 004°23'0 0.0
2016-Jun-20 14:28N 51°15' E 004°23'0 0.0
2016-Jun-20 13:29N 51°15' E 004°23'0 0.0
2016-Jun-20 12:30N 51°15' E 004°23'0 0.0
2016-Jun-20 11:33N 51°15' E 004°23'0 0.0
2016-Jun-20 10:32N 51°15' E 004°23'0 0.0
2016-Jun-20 09:32N 51°15' E 004°23'0 0.0
2016-Jun-20 08:28N 51°15' E 004°23'0 0.0
2016-Jun-20 07:32N 51°15' E 004°23'0 0.0
2016-Jun-20 06:30N 51°15' E 004°23'0 0.0
2016-Jun-20 05:32N 51°15' E 004°23'0 0.0
2016-Jun-20 04:33N 51°15' E 004°23'0 0.0
2016-Jun-20 03:32N 51°15' E 004°23'0 0.0
2016-Jun-20 02:33N 51°15' E 004°23'0 0.0
2016-Jun-20 01:32N 51°15' E 004°23'0 0.0
2016-Jun-20 00:29N 51°15' E 004°23'0 0.0
2016-Jun-19 23:31N 51°15' E 004°23'0 0.0
2016-Jun-19 22:28N 51°15' E 004°23'0 0.0
2016-Jun-19 21:26N 51°15' E 004°23'0 0.0
2016-Jun-19 20:28N 51°15' E 004°23'0 0.0
2016-Jun-19 19:33N 51°15' E 004°23'0 0.0
2016-Jun-19 18:32N 51°15' E 004°23'0 0.0
2016-Jun-19 17:32N 51°15' E 004°23'0 0.0
2016-Jun-19 16:30N 51°15' E 004°23'0 0.0
2016-Jun-19 15:26N 51°15' E 004°23'0 0.0
2016-Jun-19 14:30N 51°15' E 004°23'0 0.0
2016-Jun-19 13:32N 51°15' E 004°23'0 0.0
2016-Jun-19 12:29N 51°15' E 004°23'0 0.0
2016-Jun-19 11:33N 51°15' E 004°23'0 0.0
2016-Jun-19 10:32N 51°15' E 004°23'0 0.0
2016-Jun-19 09:26N 51°15' E 004°23'0 0.0
2016-Jun-19 08:27N 51°15' E 004°23'0 0.0
2016-Jun-19 07:33N 51°15' E 004°23'  
Track history (hours):
 
Tides and Currents Weather Stations Pressure Air Temp Water Temp Dewpoint Dewpoint Depression Visibility Wind Speed Wind Dir Waves Ship Positions

Marcel

Last reported at 2016-Jun-29 06:34 UTC. Time now 2016-Jun-29 21:58 UTC.
Position N 37°26' W 009°51'.

Length 88 m; draft 5.4 m.

Type: Cargo ship. MMSI: 205439000.

Date/timePositionNaut miles runAvg speedWind from/ knotsBaromVisibWave heightAir tempDewpointWater temp
2016-Jun-29 06:34N 37°26' W 009°51'38 9.2
2016-Jun-29 02:25N 38°04' W 009°58'  
2016-Jun-25 10:32N 49°50' W 003°14'9 7.2
2016-Jun-25 09:21N 49°54' W 003°03'6 7.6
2016-Jun-25 08:33N 49°58' W 002°55'100 8.9
2016-Jun-24 21:18N 50°26' W 000°25'6 8.1
2016-Jun-24 20:33N 50°28' W 000°17'6 5.6
2016-Jun-24 19:33N 50°30' W 000°08'10 9.3
2016-Jun-24 18:31N 50°32' E 000°07'45 9.0
2016-Jun-24 13:32N 50°55' E 001°08'8 7.7
2016-Jun-24 12:33N 50°60' E 001°17'10 9.7
2016-Jun-24 11:33N 51°05' E 001°29'1212.1
2016-Jun-24 10:33N 51°13' E 001°44'1212.3
2016-Jun-24 09:33N 51°23' E 001°57'9 8.8
2016-Jun-24 08:33N 51°22' E 002°11'10 9.8
2016-Jun-24 07:32N 51°22' E 002°27'26 8.7
2016-Jun-24 04:33N 51°24' E 003°09'8 8.3
2016-Jun-24 03:34N 51°25' E 003°22'7 7.4
2016-Jun-24 02:34N 51°26' E 003°33'1 1.3
2016-Jun-24 01:33N 51°25' E 003°35'0 0.5
2016-Jun-24 00:31N 51°25' E 003°36'0 0.0
2016-Jun-23 23:32N 51°25' E 003°36'0 0.0
2016-Jun-23 22:33N 51°25' E 003°36'0 0.1
2016-Jun-23 21:29N 51°25' E 003°36'0 0.0
2016-Jun-23 20:21N 51°25' E 003°36'0 0.0
2016-Jun-23 19:26N 51°25' E 003°36'0 0.0
2016-Jun-23 18:27N 51°25' E 003°36'0 0.0
2016-Jun-23 17:32N 51°25' E 003°36'0 0.1
2016-Jun-23 16:31N 51°25' E 003°36'0 0.1
2016-Jun-23 15:29N 51°25' E 003°36'0 0.0
2016-Jun-23 14:32N 51°25' E 003°36'0 0.0
2016-Jun-23 13:30N 51°25' E 003°36'0 0.0
2016-Jun-23 12:30N 51°25' E 003°36'0 0.0
2016-Jun-23 11:29N 51°25' E 003°36'0 0.1
2016-Jun-23 10:32N 51°25' E 003°36'0 0.1
2016-Jun-23 09:33N 51°25' E 003°36'0 0.0
2016-Jun-23 08:33N 51°25' E 003°36'4 4.3
2016-Jun-23 07:33N 51°25' E 003°29'13 6.7
2016-Jun-23 05:33N 51°21' E 003°49'9 8.9
2016-Jun-23 04:33N 51°25' E 004°02'6 6.1
2016-Jun-23 03:34N 51°24' E 004°11'7 6.7
2016-Jun-23 02:33N 51°18' E 004°17'3 2.5
2016-Jun-23 01:34N 51°17' E 004°20'3 2.6
2016-Jun-23 00:33N 51°15' E 004°23'0 0.0
2016-Jun-22 23:27N 51°15' E 004°23'0 0.0
2016-Jun-22 22:32N 51°15' E 004°23'0 0.0
2016-Jun-22 21:29N 51°15' E 004°23'0 0.0
2016-Jun-22 20:33N 51°15' E 004°23'0 0.0
2016-Jun-22 19:29N 51°15' E 004°23'0 0.0
2016-Jun-22 18:31N 51°15' E 004°23'0 0.0
2016-Jun-22 17:34N 51°15' E 004°23'0 0.0
2016-Jun-22 16:31N 51°15' E 004°23'0 0.0
2016-Jun-22 15:27N 51°15' E 004°23'0 0.0
2016-Jun-22 14:33N 51°15' E 004°23'0 0.0
2016-Jun-22 13:26N 51°15' E 004°23'0 0.0
2016-Jun-22 12:30N 51°15' E 004°23'0 0.0
2016-Jun-22 11:34N 51°15' E 004°23'0 0.0
2016-Jun-22 10:31N 51°15' E 004°23'0 0.0
2016-Jun-22 09:26N 51°15' E 004°23'0 0.0
2016-Jun-22 08:31N 51°15' E 004°23'0 0.0
2016-Jun-22 07:27N 51°15' E 004°23'0 0.0
2016-Jun-22 06:26N 51°15' E 004°23'0 0.0
2016-Jun-22 05:31N 51°15' E 004°23'0 0.0
2016-Jun-22 04:30N 51°15' E 004°23'0 0.0
2016-Jun-22 03:31N 51°15' E 004°23'0 0.0
2016-Jun-22 02:27N 51°15' E 004°23'0 0.0
2016-Jun-22 01:31N 51°15' E 004°23'0 0.0
2016-Jun-22 00:27N 51°15' E 004°23'0 0.0
2016-Jun-21 23:32N 51°15' E 004°23'0 0.0
2016-Jun-21 22:28N 51°15' E 004°23'0 0.0
2016-Jun-21 21:31N 51°15' E 004°23'0 0.0
2016-Jun-21 20:33N 51°15' E 004°23'0 0.0
2016-Jun-21 19:30N 51°15' E 004°23'0 0.0
2016-Jun-21 18:27N 51°15' E 004°23'0 0.0
2016-Jun-21 17:32N 51°15' E 004°23'0 0.0
2016-Jun-21 16:28N 51°15' E 004°23'0 0.0
2016-Jun-21 15:29N 51°15' E 004°23'0 0.0
2016-Jun-21 14:33N 51°15' E 004°23'0 0.0
2016-Jun-21 13:29N 51°15' E 004°23'0 0.0
2016-Jun-21 12:32N 51°15' E 004°23'0 0.0
2016-Jun-21 11:21N 51°15' E 004°23'0 0.0
2016-Jun-21 10:27N 51°15' E 004°23'0 0.0
2016-Jun-21 09:32N 51°15' E 004°23'0 0.0
2016-Jun-21 08:30N 51°15' E 004°23'0 0.0
2016-Jun-21 07:29N 51°15' E 004°23'0 0.0
2016-Jun-21 06:26N 51°15' E 004°23'0 0.0
2016-Jun-21 04:32N 51°15' E 004°23'0 0.0
2016-Jun-21 03:30N 51°15' E 004°23'0 0.0
2016-Jun-21 02:33N 51°15' E 004°23'0 0.0
2016-Jun-21 01:31N 51°15' E 004°23'0 0.0
2016-Jun-21 00:27N 51°15' E 004°23'0 0.0
2016-Jun-20 23:31N 51°15' E 004°23'0 0.0
2016-Jun-20 22:27N 51°15' E 004°23'0 0.0
2016-Jun-20 21:31N 51°15' E 004°23'0 0.0
2016-Jun-20 20:27N 51°15' E 004°23'0 0.0
2016-Jun-20 19:29N 51°15' E 004°23'0 0.0
2016-Jun-20 18:27N 51°15' E 004°23'0 0.0
2016-Jun-20 17:31N 51°15' E 004°23'0 0.0
2016-Jun-20 16:30N 51°15' E 004°23'0 0.0
2016-Jun-20 15:31N 51°15' E 004°23'0 0.0
2016-Jun-20 14:28N 51°15' E 004°23'0 0.0
2016-Jun-20 13:29N 51°15' E 004°23'0 0.0
2016-Jun-20 12:30N 51°15' E 004°23'0 0.0
2016-Jun-20 11:33N 51°15' E 004°23'0 0.0
2016-Jun-20 10:32N 51°15' E 004°23'0 0.0
2016-Jun-20 09:32N 51°15' E 004°23'0 0.0
2016-Jun-20 08:28N 51°15' E 004°23'0 0.0
2016-Jun-20 07:32N 51°15' E 004°23'0 0.0
2016-Jun-20 06:30N 51°15' E 004°23'0 0.0
2016-Jun-20 05:32N 51°15' E 004°23'0 0.0
2016-Jun-20 04:33N 51°15' E 004°23'0 0.0
2016-Jun-20 03:32N 51°15' E 004°23'0 0.0
2016-Jun-20 02:33N 51°15' E 004°23'0 0.0
2016-Jun-20 01:32N 51°15' E 004°23'0 0.0
2016-Jun-20 00:29N 51°15' E 004°23'0 0.0
2016-Jun-19 23:31N 51°15' E 004°23'0 0.0
2016-Jun-19 22:28N 51°15' E 004°23'0 0.0
2016-Jun-19 21:26N 51°15' E 004°23'0 0.0
2016-Jun-19 20:28N 51°15' E 004°23'0 0.0
2016-Jun-19 19:33N 51°15' E 004°23'0 0.0
2016-Jun-19 18:32N 51°15' E 004°23'0 0.0
2016-Jun-19 17:32N 51°15' E 004°23'0 0.0
2016-Jun-19 16:30N 51°15' E 004°23'0 0.0
2016-Jun-19 15:26N 51°15' E 004°23'0 0.0
2016-Jun-19 14:30N 51°15' E 004°23'0 0.0
2016-Jun-19 13:32N 51°15' E 004°23'0 0.0
2016-Jun-19 12:29N 51°15' E 004°23'0 0.0
2016-Jun-19 11:33N 51°15' E 004°23'0 0.0
2016-Jun-19 10:32N 51°15' E 004°23'0 0.0
2016-Jun-19 09:26N 51°15' E 004°23'0 0.0
2016-Jun-19 08:27N 51°15' E 004°23'0 0.0
2016-Jun-19 07:33N 51°15' E 004°23'  

Dump ship's entire track history